createdAt,value
2019-03-27T00:01:56.790Z,67.11
2019-03-27T00:03:56.748Z,67.50
2019-03-27T00:07:56.741Z,67.26
2019-03-27T00:09:56.797Z,67.04
2019-03-27T00:13:56.783Z,66.96
2019-03-27T00:15:56.767Z,66.74
2019-03-27T00:19:56.781Z,67.12
2019-03-27T00:21:56.880Z,67.12
2019-03-27T00:26:01.274Z,67.08
2019-03-27T00:27:56.759Z,67.07
2019-03-27T00:31:56.790Z,67.04
2019-03-27T00:34:12.052Z,67.44
2019-03-27T00:37:56.789Z,67.07
2019-03-27T00:39:56.765Z,66.95
2019-03-27T00:43:56.798Z,66.95
2019-03-27T00:46:00.898Z,66.74
2019-03-27T00:49:56.777Z,66.74
2019-03-27T00:51:56.788Z,66.75
2019-03-27T00:55:56.793Z,66.63
2019-03-27T00:57:56.789Z,67.31
2019-03-27T01:01:56.790Z,66.93
2019-03-27T01:03:56.776Z,66.77
2019-03-27T01:07:56.782Z,66.94
2019-03-27T01:09:56.810Z,66.59
2019-03-27T01:13:56.781Z,66.36
2019-03-27T01:15:56.787Z,67.13
2019-03-27T01:19:56.778Z,66.98
2019-03-27T01:21:56.782Z,67.11
2019-03-27T01:25:56.787Z,66.64
2019-03-27T01:27:56.827Z,66.71
2019-03-27T01:31:56.799Z,66.85
2019-03-27T01:33:56.803Z,67.20
2019-03-27T01:37:56.782Z,67.25
2019-03-27T01:39:56.796Z,66.87
2019-03-27T01:43:56.767Z,66.89
2019-03-27T01:45:56.797Z,66.85
2019-03-27T01:49:56.817Z,66.85
2019-03-27T01:51:56.775Z,66.78
2019-03-27T01:55:56.777Z,66.70
2019-03-27T01:57:56.809Z,66.50
2019-03-27T02:01:56.797Z,66.89
2019-03-27T02:03:56.800Z,66.80
2019-03-27T02:08:01.504Z,66.80
2019-03-27T02:09:56.807Z,67.11
2019-03-27T02:13:56.779Z,66.68
2019-03-27T02:16:07.006Z,66.92
2019-03-27T02:19:56.804Z,67.26
2019-03-27T02:21:56.809Z,66.99
2019-03-27T02:26:01.291Z,67.24
2019-03-27T02:27:56.828Z,66.89
2019-03-27T02:31:56.828Z,66.86
2019-03-27T02:33:56.817Z,66.54
2019-03-27T02:37:56.837Z,66.37
2019-03-27T02:39:56.812Z,66.77
2019-03-27T02:43:56.801Z,66.86
2019-03-27T02:45:56.838Z,66.99
2019-03-27T02:49:56.823Z,66.67
2019-03-27T02:51:56.816Z,66.62
2019-03-27T02:55:56.839Z,66.36
2019-03-27T02:57:57.026Z,67.10
2019-03-27T03:01:56.828Z,66.70
2019-03-27T03:03:58.798Z,67.07
2019-03-27T03:07:56.796Z,67.09
2019-03-27T03:10:01.488Z,66.60
2019-03-27T03:13:56.828Z,66.60
2019-03-27T03:15:56.841Z,66.83
2019-03-27T03:19:56.834Z,66.73
2019-03-27T03:21:56.835Z,66.75
2019-03-27T03:25:56.826Z,66.63
2019-03-27T03:27:56.847Z,66.86
2019-03-27T03:31:56.839Z,66.52
2019-03-27T03:33:56.822Z,66.45
2019-03-27T03:37:56.805Z,66.76
2019-03-27T03:39:56.827Z,66.70
2019-03-27T03:43:56.815Z,66.58
2019-03-27T03:45:56.828Z,66.85
2019-03-27T03:49:56.804Z,66.70
2019-03-27T03:51:56.839Z,66.81
2019-03-27T03:55:56.829Z,66.65
2019-03-27T03:57:56.853Z,66.66
2019-03-27T04:01:56.835Z,66.83
2019-03-27T04:03:56.851Z,66.58
2019-03-27T04:07:56.865Z,66.57
2019-03-27T04:09:56.855Z,66.60
2019-03-27T04:13:56.864Z,66.80
2019-03-27T04:15:56.832Z,66.66
2019-03-27T04:19:56.860Z,66.72
2019-03-27T04:21:56.847Z,66.41
2019-03-27T04:26:09.213Z,66.63
2019-03-27T04:27:56.846Z,66.84
2019-03-27T04:31:56.875Z,66.92
2019-03-27T04:33:56.913Z,66.98
2019-03-27T04:37:56.854Z,66.80
2019-03-27T04:39:56.872Z,67.19
2019-03-27T04:43:56.836Z,66.95
2019-03-27T04:46:01.832Z,66.96
2019-03-27T04:49:56.870Z,66.92
2019-03-27T04:51:56.841Z,66.74
2019-03-27T04:55:56.863Z,66.73
2019-03-27T04:57:56.874Z,67.17
2019-03-27T05:01:56.879Z,66.55
2019-03-27T05:03:56.873Z,66.37
2019-03-27T05:07:56.897Z,66.90
2019-03-27T05:09:56.830Z,66.98
2019-03-27T05:13:56.865Z,66.87
2019-03-27T05:16:01.922Z,66.81
2019-03-27T05:20:01.882Z,66.91
2019-03-27T05:21:58.991Z,66.78
2019-03-27T05:27:56.854Z,66.78
2019-03-27T05:29:56.905Z,66.70
2019-03-27T05:33:56.889Z,66.88
2019-03-27T05:35:56.902Z,66.71
2019-03-27T05:40:01.910Z,66.84
2019-03-27T05:41:56.897Z,66.74
2019-03-27T05:45:56.888Z,66.53
2019-03-27T05:48:01.309Z,66.67
2019-03-27T05:51:56.903Z,67.02
2019-03-27T05:53:56.944Z,67.09
2019-03-27T05:57:56.866Z,66.98
2019-03-27T05:59:56.895Z,66.86
2019-03-27T06:04:05.186Z,66.69
2019-03-27T06:05:56.900Z,66.75
2019-03-27T06:09:56.895Z,66.54
2019-03-27T06:11:56.894Z,66.62
2019-03-27T06:16:01.485Z,66.73
2019-03-27T06:17:56.928Z,66.80
2019-03-27T06:21:56.906Z,66.87
2019-03-27T06:24:01.930Z,66.69
2019-03-27T06:27:56.891Z,66.86
2019-03-27T06:30:01.374Z,66.72
2019-03-27T06:33:56.894Z,66.66
2019-03-27T06:36:01.611Z,66.91
2019-03-27T06:39:56.927Z,66.95
2019-03-27T06:41:56.894Z,67.00
2019-03-27T06:45:58.392Z,66.85
2019-03-27T06:48:01.495Z,67.03
2019-03-27T06:51:56.886Z,66.92
2019-03-27T06:54:01.925Z,66.54
2019-03-27T06:58:01.995Z,66.78
2019-03-27T07:00:01.345Z,66.82
2019-03-27T07:04:09.493Z,66.97
2019-03-27T07:06:01.890Z,66.74
2019-03-27T07:10:01.427Z,66.53
2019-03-27T07:11:56.924Z,66.72
2019-03-27T07:15:56.895Z,66.87
2019-03-27T07:18:01.864Z,66.88
2019-03-27T07:21:56.902Z,66.93
2019-03-27T07:23:56.900Z,66.64
2019-03-27T07:27:56.931Z,66.84
2019-03-27T07:30:01.547Z,67.07
2019-03-27T07:33:56.902Z,67.05
2019-03-27T07:36:01.868Z,66.86
2019-03-27T07:40:01.914Z,66.95
2019-03-27T07:41:56.928Z,66.96
2019-03-27T07:45:56.927Z,66.89
2019-03-27T07:48:01.944Z,67.05
2019-03-27T07:52:02.095Z,67.00
2019-03-27T07:53:56.907Z,66.57
2019-03-27T07:58:01.412Z,67.12
2019-03-27T07:59:56.912Z,66.65
2019-03-27T08:04:01.950Z,66.81
2019-03-27T08:06:02.108Z,66.73
2019-03-27T08:09:56.945Z,66.82
2019-03-27T08:11:56.935Z,66.54
2019-03-27T08:16:01.907Z,66.93
2019-03-27T08:17:56.921Z,66.35
2019-03-27T08:21:56.946Z,66.98
2019-03-27T08:23:56.953Z,66.60
2019-03-27T08:28:01.887Z,66.40
2019-03-27T08:31:56.943Z,66.49
2019-03-27T08:33:56.933Z,66.69
2019-03-27T08:37:56.952Z,66.68
2019-03-27T08:39:56.952Z,66.75
2019-03-27T08:43:56.953Z,66.63
2019-03-27T08:46:01.891Z,66.75
2019-03-27T08:50:01.955Z,66.48
2019-03-27T08:52:01.967Z,66.44
2019-03-27T08:55:56.956Z,66.40
2019-03-27T08:57:56.950Z,66.37
2019-03-27T09:02:01.391Z,66.39
2019-03-27T09:04:06.383Z,66.13
2019-03-27T09:07:56.962Z,66.00
2019-03-27T09:10:01.462Z,65.81
2019-03-27T09:13:56.947Z,65.95
2019-03-27T09:15:56.968Z,66.07
2019-03-27T09:20:01.513Z,65.85
2019-03-27T09:21:56.948Z,65.83
2019-03-27T09:26:01.951Z,65.73
2019-03-27T09:27:56.929Z,66.08
2019-03-27T09:32:02.000Z,65.84
2019-03-27T09:34:02.007Z,65.46
2019-03-27T09:37:56.945Z,64.78
2019-03-27T09:39:56.967Z,64.93
2019-03-27T09:43:56.979Z,64.97
2019-03-27T09:45:56.954Z,64.95
2019-03-27T09:49:56.965Z,64.58
2019-03-27T09:51:56.957Z,65.19
2019-03-27T09:55:56.988Z,64.69
2019-03-27T09:57:56.961Z,65.28
2019-03-27T10:01:56.964Z,65.23
2019-03-27T10:03:56.966Z,65.47
2019-03-27T10:07:56.993Z,65.64
2019-03-27T10:10:01.438Z,65.12
2019-03-27T10:13:56.969Z,65.60
2019-03-27T10:15:56.979Z,65.79
2019-03-27T10:20:03.338Z,66.26
2019-03-27T10:21:56.986Z,65.90
2019-03-27T10:25:56.989Z,66.31
2019-03-27T10:28:01.332Z,65.96
2019-03-27T10:31:56.981Z,66.28
2019-03-27T10:33:56.990Z,65.86
2019-03-27T10:37:57.803Z,66.50
2019-03-27T10:39:56.952Z,66.02
2019-03-27T10:43:57.012Z,66.73
2019-03-27T10:45:56.982Z,66.44
2019-03-27T10:49:56.988Z,66.68
2019-03-27T10:51:56.983Z,66.66
2019-03-27T10:56:01.504Z,66.09
2019-03-27T10:58:01.992Z,66.48
2019-03-27T11:01:56.990Z,66.47
2019-03-27T11:04:01.929Z,66.35
2019-03-27T11:07:57.022Z,66.41
2019-03-27T11:09:56.972Z,66.89
2019-03-27T11:14:02.002Z,66.73
2019-03-27T11:15:57.002Z,66.37
2019-03-27T11:19:57.004Z,67.25
2019-03-27T11:22:01.946Z,67.11
2019-03-27T11:25:56.977Z,66.57
2019-03-27T11:28:02.025Z,66.63
2019-03-27T11:34:02.026Z,67.43
2019-03-27T11:35:57.166Z,67.22
2019-03-27T11:39:57.037Z,67.03
2019-03-27T11:41:56.997Z,66.70
2019-03-27T11:45:56.996Z,67.44
2019-03-27T11:48:02.013Z,66.94
2019-03-27T11:51:57.024Z,67.39
2019-03-27T11:53:57.016Z,67.03
2019-03-27T11:57:57.008Z,67.05
2019-03-27T12:01:57.013Z,67.81
2019-03-27T12:04:01.304Z,67.58
2019-03-27T12:07:57.028Z,67.75
2019-03-27T12:10:01.469Z,67.47
2019-03-27T12:13:57.035Z,67.43
2019-03-27T12:15:57.060Z,67.96
2019-03-27T12:19:57.011Z,67.22
2019-03-27T12:22:02.004Z,67.60
2019-03-27T12:25:57.015Z,68.00
2019-03-27T12:27:57.020Z,67.37
2019-03-27T12:31:57.029Z,67.43
2019-03-27T12:33:57.022Z,68.04
2019-03-27T12:38:04.289Z,68.22
2019-03-27T12:39:57.019Z,67.92
2019-03-27T12:44:02.706Z,68.19
2019-03-27T12:46:01.364Z,67.87
2019-03-27T12:49:59.467Z,67.91
2019-03-27T12:51:57.074Z,68.14
2019-03-27T12:56:02.135Z,68.12
2019-03-27T12:58:02.040Z,67.54
2019-03-27T13:01:57.005Z,67.74
2019-03-27T13:04:06.361Z,68.16
2019-03-27T13:07:57.030Z,68.29
2019-03-27T13:10:02.042Z,67.54
2019-03-27T13:13:57.047Z,68.24
2019-03-27T13:15:57.036Z,67.62
2019-03-27T13:19:57.061Z,67.84
2019-03-27T13:22:01.595Z,67.78
2019-03-27T13:25:57.048Z,67.73
2019-03-27T13:28:01.994Z,68.30
2019-03-27T13:31:57.020Z,68.28
2019-03-27T13:33:57.054Z,67.81
2019-03-27T13:37:57.045Z,67.95
2019-03-27T13:40:01.389Z,67.92
2019-03-27T13:43:57.062Z,68.51
2019-03-27T13:46:01.552Z,67.86
2019-03-27T13:49:57.061Z,68.25
2019-03-27T13:51:59.322Z,68.11
2019-03-27T13:55:57.024Z,68.65
2019-03-27T13:58:02.104Z,68.71
2019-03-27T14:02:02.147Z,68.74
2019-03-27T14:03:57.082Z,68.04
2019-03-27T14:10:02.104Z,68.33
2019-03-27T14:12:01.601Z,68.62
2019-03-27T14:15:57.057Z,68.05
2019-03-27T14:17:57.073Z,68.10
2019-03-27T14:21:57.071Z,68.53
2019-03-27T14:24:01.766Z,68.81
2019-03-27T14:27:57.061Z,68.53
2019-03-27T14:30:02.055Z,68.05
2019-03-27T14:34:01.524Z,68.16
2019-03-27T14:36:02.026Z,68.42
2019-03-27T14:39:57.050Z,68.03
2019-03-27T14:41:57.056Z,68.06
2019-03-27T14:45:57.035Z,68.56
2019-03-27T14:47:57.058Z,68.04
2019-03-27T14:52:07.753Z,67.91
2019-03-27T14:54:02.022Z,68.97
2019-03-27T14:57:57.068Z,67.98
2019-03-27T14:59:57.095Z,68.09
2019-03-27T15:03:57.069Z,67.92
2019-03-27T15:06:02.115Z,68.69
2019-03-27T15:09:57.090Z,68.10
2019-03-27T15:11:57.071Z,68.68
2019-03-27T15:16:02.074Z,67.99
2019-03-27T15:17:57.110Z,67.91
2019-03-27T15:21:57.079Z,68.11
2019-03-27T15:23:57.092Z,68.47
2019-03-27T15:28:01.824Z,68.63
2019-03-27T15:29:57.092Z,68.46
2019-03-27T15:33:57.099Z,67.96
2019-03-27T15:35:57.086Z,68.70
2019-03-27T15:39:57.078Z,67.72
2019-03-27T15:42:01.759Z,68.33
2019-03-27T15:45:57.122Z,67.73
2019-03-27T15:47:57.076Z,68.40
2019-03-27T15:51:57.095Z,68.38
2019-03-27T15:54:01.529Z,68.34
2019-03-27T15:58:01.636Z,67.96
2019-03-27T16:00:01.567Z,68.21
2019-03-27T16:03:57.120Z,67.90
2019-03-27T16:05:57.109Z,67.61
2019-03-27T16:10:00.814Z,68.02
2019-03-27T16:12:05.786Z,67.50
2019-03-27T16:15:57.114Z,68.39
2019-03-27T16:18:02.148Z,67.60
2019-03-27T16:22:01.677Z,67.43
2019-03-27T16:24:06.552Z,67.61
2019-03-27T16:28:01.613Z,67.76
2019-03-27T16:29:57.141Z,67.85
2019-03-27T16:33:57.158Z,67.62
2019-03-27T16:35:57.103Z,67.90
2019-03-27T16:39:59.669Z,67.29
2019-03-27T16:41:59.160Z,67.39
2019-03-27T16:45:57.104Z,67.34
2019-03-27T16:47:57.131Z,67.13
2019-03-27T16:51:57.131Z,67.39
2019-03-27T16:53:57.100Z,67.44
2019-03-27T16:57:57.129Z,67.80
2019-03-27T16:59:57.142Z,67.37
2019-03-27T17:03:57.110Z,67.61
2019-03-27T17:05:57.158Z,67.77
2019-03-27T17:10:01.671Z,67.45
2019-03-27T17:11:57.151Z,67.27
2019-03-27T17:15:57.144Z,67.64
2019-03-27T17:18:02.155Z,67.52
2019-03-27T17:22:00.842Z,67.64
2019-03-27T17:23:57.132Z,67.74
2019-03-27T17:27:57.161Z,67.20
2019-03-27T17:30:02.130Z,67.20
2019-03-27T17:34:02.092Z,67.27
2019-03-27T17:36:01.798Z,67.75
2019-03-27T17:40:04.869Z,67.27
2019-03-27T17:41:59.124Z,67.25
2019-03-27T17:46:02.211Z,67.28
2019-03-27T17:48:01.603Z,67.76
2019-03-27T17:51:57.159Z,67.36
2019-03-27T17:53:57.988Z,67.03
2019-03-27T17:57:57.165Z,67.66
2019-03-27T17:59:57.158Z,67.40
2019-03-27T18:03:58.979Z,67.48
2019-03-27T18:06:03.363Z,67.53
2019-03-27T18:09:57.170Z,67.32
2019-03-27T18:13:14.401Z,66.86
2019-03-27T18:15:11.640Z,67.12
2019-03-27T18:17:13.190Z,67.77
2019-03-27T18:23:08.671Z,67.57
2019-03-27T18:25:08.684Z,68.00
2019-03-27T18:31:08.660Z,67.45
2019-03-27T18:33:12.442Z,67.63
2019-03-27T18:37:08.736Z,67.53
2019-03-27T18:39:08.712Z,67.59
2019-03-27T18:43:13.700Z,67.08
2019-03-27T18:45:08.694Z,67.32
2019-03-27T18:49:12.438Z,67.33
2019-03-27T18:51:08.730Z,67.64
2019-03-27T18:55:08.697Z,67.41
2019-03-27T18:57:10.657Z,67.45
2019-03-27T19:01:13.053Z,67.26
2019-03-27T19:03:08.665Z,67.08
2019-03-27T19:07:08.705Z,67.52
2019-03-27T19:09:13.655Z,67.26
2019-03-27T19:13:08.733Z,67.56
2019-03-27T19:15:08.714Z,67.75
2019-03-27T19:19:08.684Z,67.58
2019-03-27T19:21:08.744Z,67.83
2019-03-27T19:25:08.723Z,67.48
2019-03-27T19:27:08.714Z,67.43
2019-03-27T19:31:08.703Z,67.62
2019-03-27T19:33:08.711Z,67.42
2019-03-27T19:37:08.679Z,67.49
2019-03-27T19:39:08.702Z,67.11
2019-03-27T19:43:08.717Z,67.47
2019-03-27T19:45:15.355Z,67.53
2019-03-27T19:49:11.642Z,67.31
2019-03-27T19:53:13.745Z,67.28
2019-03-27T19:55:08.758Z,67.33
2019-03-27T19:59:08.784Z,66.99
2019-03-27T20:01:08.728Z,67.59
2019-03-27T20:05:08.706Z,67.29
2019-03-27T20:07:13.330Z,67.45
2019-03-27T20:11:11.681Z,67.55
2019-03-27T20:13:13.270Z,67.39
2019-03-27T20:17:08.738Z,67.25
2019-03-27T20:19:10.957Z,67.19
2019-03-27T20:23:14.951Z,67.06
2019-03-27T20:25:08.723Z,67.18
2019-03-27T20:29:08.693Z,66.80
2019-03-27T20:31:08.759Z,67.00
2019-03-27T20:35:13.668Z,66.80
2019-03-27T20:37:08.767Z,67.01
2019-03-27T20:41:09.850Z,67.07
2019-03-27T20:43:08.771Z,66.81
2019-03-27T20:47:13.726Z,66.57
2019-03-27T20:49:09.753Z,66.79
2019-03-27T20:53:13.571Z,66.94
2019-03-27T20:55:08.723Z,66.74
2019-03-27T20:59:08.739Z,66.69
2019-03-27T21:01:15.419Z,67.02
2019-03-27T21:05:08.747Z,66.40
2019-03-27T21:07:13.673Z,66.45
2019-03-27T21:11:13.765Z,66.49
2019-03-27T21:13:08.756Z,66.49
2019-03-27T21:17:08.723Z,66.79
2019-03-27T21:19:09.086Z,66.85
2019-03-27T21:23:08.761Z,66.25
2019-03-27T21:25:09.638Z,66.74
2019-03-27T21:29:08.768Z,66.57
2019-03-27T21:31:08.724Z,66.58
2019-03-27T21:35:13.365Z,66.17
2019-03-27T21:37:08.792Z,66.72
2019-03-27T21:41:08.777Z,66.34
2019-03-27T21:43:08.760Z,66.43
2019-03-27T21:47:08.748Z,66.46
2019-03-27T21:49:08.783Z,66.41
2019-03-27T21:53:08.763Z,66.27
2019-03-27T21:55:21.532Z,66.70
2019-03-27T21:59:08.822Z,66.06
2019-03-27T22:01:08.795Z,66.29
2019-03-27T22:05:08.780Z,66.22
2019-03-27T22:07:08.801Z,65.77
2019-03-27T22:11:13.766Z,66.34
2019-03-27T22:13:13.323Z,66.87
2019-03-27T22:17:08.762Z,66.42
2019-03-27T22:19:08.756Z,66.31
2019-03-27T22:23:13.983Z,66.43
2019-03-27T22:25:08.817Z,66.40
2019-03-27T22:29:08.808Z,66.29
2019-03-27T22:31:08.771Z,66.40
2019-03-27T22:35:08.824Z,66.42
2019-03-27T22:37:08.791Z,66.13
2019-03-27T22:41:08.801Z,66.27
2019-03-27T22:43:08.798Z,66.65
2019-03-27T22:47:08.807Z,66.08
2019-03-27T22:49:08.797Z,66.05
2019-03-27T22:53:08.841Z,66.21
2019-03-27T22:55:08.787Z,66.33
2019-03-27T22:59:08.854Z,66.22
2019-03-27T23:01:08.798Z,66.16
2019-03-27T23:05:08.779Z,66.15
2019-03-27T23:07:08.799Z,66.60
2019-03-27T23:11:08.796Z,66.04
2019-03-27T23:13:13.490Z,66.15
2019-03-27T23:17:08.810Z,66.18
2019-03-27T23:19:13.421Z,66.33
2019-03-27T23:23:08.785Z,66.32
2019-03-27T23:25:08.827Z,66.16
2019-03-27T23:29:13.471Z,66.12
2019-03-27T23:31:13.765Z,66.27
2019-03-27T23:35:08.866Z,66.11
2019-03-27T23:37:08.812Z,65.91
2019-03-27T23:41:08.806Z,66.12
2019-03-27T23:43:08.853Z,65.93
2019-03-27T23:47:08.826Z,66.36
2019-03-27T23:49:13.756Z,66.17
2019-03-27T23:53:08.831Z,66.54
2019-03-27T23:55:08.798Z,66.28
2019-03-27T23:59:08.826Z,66.33
